Time;durP1;ratioP1;P1;durP2;ratioP2;P2;SDS_P1;SDS_P2;PMS_P1;PMS_P2;Temp;Humidity;BMP_temperature;BMP_pressure;BME280_temperature;BME280_humidity;BME280_pressure;Samples;Min_cycle;Max_cycle;Signal;HPM_P1;HPM_P2
2023/12/14 00:00:08;;;;;;;21.50;15.00;;;;;;;1.42;85.51;100673.40;104779;1259;75242;-61
2023/12/14 00:02:34;;;;;;;22.40;15.50;;;;;;;1.45;85.58;100672.85;108702;1257;139157;-62
2023/12/14 00:05:01;;;;;;;27.20;15.80;;;;;;;1.48;85.67;100676.17;108767;1257;72639;-62
2023/12/14 00:07:28;;;;;;;23.80;14.70;;;;;;;1.51;85.56;100673.27;108789;1255;60445;-62
2023/12/14 00:09:54;;;;;;;22.40;14.30;;;;;;;1.56;85.60;100674.09;108682;1257;138549;-62
2023/12/14 00:12:21;;;;;;;22.10;13.80;;;;;;;1.60;85.67;100672.59;108832;1256;75099;-62
2023/12/14 00:14:48;;;;;;;20.50;13.90;;;;;;;1.62;85.45;100681.36;108759;1257;138504;-62
2023/12/14 00:17:14;;;;;;;22.60;14.10;;;;;;;1.60;85.13;100682.59;108822;1257;72712;-62
2023/12/14 00:19:42;;;;;;;22.80;14.60;;;;;;;1.57;85.08;100679.66;108853;1256;59908;-62
2023/12/14 00:22:09;;;;;;;20.40;13.80;;;;;;;1.52;84.95;100683.73;108712;1257;138208;-67
2023/12/14 00:24:35;;;;;;;23.40;14.00;;;;;;;1.47;84.88;100688.56;108807;1256;74732;-62
2023/12/14 00:27:02;;;;;;;17.90;12.50;;;;;;;1.40;84.86;100688.65;108552;1260;139192;-61
2023/12/14 00:29:29;;;;;;;16.80;11.80;;;;;;;1.32;84.80;100691.10;104748;1260;72046;-61
2023/12/14 00:31:56;;;;;;;18.10;11.60;;;;;;;1.29;85.02;100694.39;104744;1257;61385;-61
2023/12/14 00:34:22;;;;;;;16.60;11.90;;;;;;;1.25;84.93;100696.06;104807;1269;138680;-62
2023/12/14 00:36:49;;;;;;;18.00;13.00;;;;;;;1.21;85.06;100699.23;104638;1257;74030;-61
2023/12/14 00:39:16;;;;;;;16.00;11.50;;;;;;;1.14;85.06;100702.67;104543;1257;138735;-61
2023/12/14 00:41:42;;;;;;;16.00;12.20;;;;;;;1.10;85.25;100704.48;104649;1258;71413;-62
2023/12/14 00:44:09;;;;;;;15.30;11.60;;;;;;;1.06;85.19;100712.66;104637;1261;61219;-60
2023/12/14 00:46:35;;;;;;;15.30;10.50;;;;;;;1.04;85.60;100716.34;104573;1260;138683;-61
2023/12/14 00:49:02;;;;;;;14.10;10.70;;;;;;;1.03;85.58;100720.60;104799;1258;77057;-61
2023/12/14 00:51:29;;;;;;;13.90;11.20;;;;;;;1.03;85.78;100723.90;104709;1260;138548;-61
2023/12/14 00:53:55;;;;;;;16.70;11.30;;;;;;;1.04;86.00;100727.45;104731;1260;73159;-62
2023/12/14 00:56:22;;;;;;;16.70;11.90;;;;;;;1.07;85.99;100724.29;104747;1261;61178;-61
2023/12/14 00:58:48;;;;;;;14.20;10.50;;;;;;;1.05;85.90;100730.73;104628;1267;139280;-61
2023/12/14 01:01:15;;;;;;;15.50;11.00;;;;;;;1.03;85.94;100732.52;104789;1257;75294;-60
2023/12/14 01:03:42;;;;;;;14.30;11.70;;;;;;;1.01;85.78;100737.25;104661;1257;138536;-61
2023/12/14 01:06:08;;;;;;;13.40;9.40;;;;;;;1.01;86.06;100740.49;104807;1261;73648;-61
2023/12/14 01:08:35;;;;;;;15.10;10.70;;;;;;;1.01;86.00;100743.48;104380;1256;139087;-61
2023/12/14 01:11:02;;;;;;;15.20;11.20;;;;;;;1.00;86.12;100745.65;108755;1256;59510;-61
2023/12/14 01:13:28;;;;;;;17.50;11.60;;;;;;;1.00;86.07;100747.70;107564;1260;74900;-61
2023/12/14 01:15:55;;;;;;;16.20;11.60;;;;;;;1.02;86.21;100745.93;104661;1256;139130;-66
2023/12/14 01:18:22;;;;;;;14.00;10.20;;;;;;;1.05;86.16;100744.93;104816;1259;73790;-66
2023/12/14 01:20:48;;;;;;;12.70;10.10;;;;;;;1.05;86.11;100743.05;104795;1257;139424;-66
2023/12/14 01:23:15;;;;;;;15.20;10.70;;;;;;;1.05;86.06;100751.88;104660;1257;61397;-65
2023/12/14 01:25:42;;;;;;;15.10;10.60;;;;;;;1.02;86.02;100748.70;104637;1262;74126;-66
2023/12/14 01:28:09;;;;;;;14.50;10.10;;;;;;;1.00;86.17;100747.73;104644;1257;138591;-66
2023/12/14 01:30:35;;;;;;;13.60;10.90;;;;;;;1.01;86.35;100747.27;104758;1257;71459;-65
2023/12/14 01:33:02;;;;;;;15.30;10.80;;;;;;;1.02;86.12;100749.73;104559;1262;138713;-64
2023/12/14 01:35:29;;;;;;;13.70;10.90;;;;;;;1.03;86.34;100751.17;104806;1261;61415;-64
2023/12/14 01:37:56;;;;;;;14.70;10.30;;;;;;;1.04;86.43;100748.88;104813;1258;75374;-64
2023/12/14 01:40:23;;;;;;;13.50;10.60;;;;;;;1.08;86.47;100751.34;104794;1259;139240;-64
2023/12/14 01:42:49;;;;;;;15.50;11.20;;;;;;;1.10;86.43;100750.05;104785;1260;71274;-61
2023/12/14 01:45:16;;;;;;;14.50;10.90;;;;;;;1.10;86.57;100750.95;104795;1257;139097;-61
2023/12/14 01:47:43;;;;;;;15.00;11.00;;;;;;;1.11;86.54;100748.61;104916;1258;61289;-61
2023/12/14 01:50:10;;;;;;;13.60;10.70;;;;;;;1.13;86.50;100749.05;104759;1257;74551;-60
2023/12/14 01:52:36;;;;;;;16.20;11.50;;;;;;;1.15;86.56;100751.23;104627;1258;138320;-61
2023/12/14 01:55:04;;;;;;;13.90;10.60;;;;;;;1.18;86.68;100755.58;104704;1257;73251;-62
2023/12/14 01:57:30;;;;;;;16.00;11.80;;;;;;;1.23;86.78;100757.98;104702;1257;138869;-60
2023/12/14 01:59:57;;;;;;;17.10;12.20;;;;;;;1.26;86.52;100756.08;104488;1261;61622;-61
2023/12/14 02:02:24;;;;;;;15.30;10.90;;;;;;;1.27;86.55;100756.16;104611;1256;73899;-61
2023/12/14 02:04:50;;;;;;;15.60;11.40;;;;;;;1.29;86.52;100751.44;104487;1260;138131;-64
2023/12/14 02:07:17;;;;;;;16.10;11.30;;;;;;;1.31;86.50;100749.48;104609;1257;74206;-65
2023/12/14 02:09:43;;;;;;;16.00;11.50;;;;;;;1.36;86.62;100749.11;104514;1261;139853;-65
2023/12/14 02:12:10;;;;;;;14.50;11.10;;;;;;;1.40;86.48;100752.98;104717;1260;61258;-64
2023/12/14 02:14:37;;;;;;;16.10;10.80;;;;;;;1.41;86.29;100757.72;104007;1261;138833;-65
2023/12/14 02:17:04;;;;;;;14.90;10.10;;;;;;;1.43;86.29;100758.51;104471;1258;66733;-65
2023/12/14 02:19:30;;;;;;;13.50;10.30;;;;;;;1.44;86.09;100759.77;104687;1258;74313;-67
2023/12/14 02:21:57;;;;;;;15.00;10.00;;;;;;;1.43;86.05;100758.36;104645;1258;138846;-67
2023/12/14 02:24:24;;;;;;;16.30;10.30;;;;;;;1.46;85.97;100759.73;104844;1257;61215;-67
2023/12/14 02:26:51;;;;;;;13.10;9.10;;;;;;;1.49;85.86;100763.73;104546;1261;138597;-66
2023/12/14 02:29:17;;;;;;;14.50;10.00;;;;;;;1.49;85.70;100761.86;104674;1257;66299;-67
2023/12/14 02:31:44;;;;;;;11.50;8.40;;;;;;;1.51;85.65;100762.48;104638;1258;73320;-67
2023/12/14 02:34:11;;;;;;;12.60;9.10;;;;;;;1.52;85.47;100758.73;104626;1255;138183;-67
2023/12/14 02:36:37;;;;;;;15.10;9.30;;;;;;;1.53;85.55;100759.64;104753;1260;61286;-62
2023/12/14 02:39:04;;;;;;;14.00;9.20;;;;;;;1.54;85.34;100759.93;104569;1257;138315;-61
2023/12/14 02:41:31;;;;;;;14.60;9.80;;;;;;;1.55;85.35;100752.53;104783;1256;66927;-61
2023/12/14 02:43:57;;;;;;;10.90;8.10;;;;;;;1.57;85.17;100753.48;104825;1258;71565;-61
2023/12/14 02:46:24;;;;;;;11.60;8.40;;;;;;;1.57;85.07;100753.35;104707;1260;138414;-62
2023/12/14 02:48:50;;;;;;;12.00;8.30;;;;;;;1.59;85.03;100757.80;104583;1261;61506;-61
2023/12/14 02:51:17;;;;;;;11.00;7.10;;;;;;;1.60;84.69;100756.65;104584;1260;139174;-62
2023/12/14 02:53:44;;;;;;;12.60;7.30;;;;;;;1.59;84.64;100757.79;104666;1257;66922;-61
2023/12/14 02:56:13;;;;;;;9.30;6.80;;;;;;;1.59;84.60;100755.50;104653;1261;73029;-62
2023/12/14 02:58:40;;;;;;;11.40;7.10;;;;;;;1.59;84.44;100757.92;104728;1261;138202;-61
2023/12/14 03:01:06;;;;;;;9.80;6.20;;;;;;;1.60;84.29;100758.39;104832;1264;61264;-62
2023/12/14 03:03:33;;;;;;;12.10;6.50;;;;;;;1.62;84.20;100763.15;104684;1257;137866;-61
2023/12/14 03:06:00;;;;;;;7.80;6.10;;;;;;;1.63;84.20;100763.92;104835;1261;67431;-60
2023/12/14 03:08:26;;;;;;;10.10;7.10;;;;;;;1.66;84.09;100763.19;104713;1264;72575;-66
2023/12/14 03:10:53;;;;;;;10.20;6.80;;;;;;;1.67;83.89;100763.25;104428;1258;138117;-67
2023/12/14 03:13:20;;;;;;;11.80;6.50;;;;;;;1.67;83.99;100761.74;104648;1260;61248;-67
2023/12/14 03:15:49;;;;;;;9.00;6.70;;;;;;;1.69;83.70;100762.36;104664;1259;138295;-67
2023/12/14 03:18:15;;;;;;;8.50;6.30;;;;;;;1.69;83.69;100766.15;108707;1257;66485;-66
2023/12/14 03:20:42;;;;;;;12.60;6.90;;;;;;;1.71;83.65;100765.06;105522;1255;138133;-59
2023/12/14 03:23:09;;;;;;;13.60;7.00;;;;;;;1.74;83.58;100764.23;104734;1259;61328;-66
2023/12/14 03:25:35;;;;;;;10.40;7.00;;;;;;;1.77;83.46;100763.86;104666;1256;61369;-65
2023/12/14 03:28:02;;;;;;;10.40;6.50;;;;;;;1.78;83.45;100766.17;104688;1260;138260;-65
2023/12/14 03:30:29;;;;;;;10.60;6.60;;;;;;;1.80;83.27;100766.27;104903;1259;65673;-65
2023/12/14 03:32:56;;;;;;;11.60;6.60;;;;;;;1.83;83.38;100768.59;104574;1258;138996;-67
2023/12/14 03:35:22;;;;;;;10.00;6.20;;;;;;;1.86;83.29;100766.17;104706;1257;61392;-66
2023/12/14 03:37:49;;;;;;;10.20;6.10;;;;;;;1.87;83.16;100769.70;104702;1258;61250;-66
2023/12/14 03:40:16;;;;;;;9.30;6.20;;;;;;;1.88;83.10;100769.77;104543;1260;138469;-66
2023/12/14 03:42:42;;;;;;;11.00;6.00;;;;;;;1.90;82.98;100774.86;104755;1260;65526;-66
2023/12/14 03:45:10;;;;;;;9.20;6.10;;;;;;;1.90;82.83;100774.86;104642;1257;138088;-66
2023/12/14 03:47:37;;;;;;;8.60;6.00;;;;;;;1.90;82.63;100776.93;105212;1257;61319;-65
2023/12/14 03:50:04;;;;;;;9.10;5.60;;;;;;;1.90;82.63;100776.77;104775;1257;61376;-66
2023/12/14 03:52:31;;;;;;;8.00;4.90;;;;;;;1.89;82.37;100774.27;104405;1257;138149;-61
2023/12/14 03:54:58;;;;;;;7.00;5.60;;;;;;;1.89;82.43;100777.90;104752;1267;68297;-61
2023/12/14 03:57:24;;;;;;;9.80;5.40;;;;;;;1.91;82.43;100777.73;104675;1256;139210;-61
2023/12/14 03:59:51;;;;;;;6.80;5.20;;;;;;;1.93;82.31;100779.41;104231;1255;61543;-60
2023/12/14 04:02:18;;;;;;;9.90;5.00;;;;;;;1.94;82.13;100778.59;104581;1258;61263;-62
2023/12/14 04:04:46;;;;;;;8.80;5.80;;;;;;;1.95;82.16;100778.99;104547;1257;137812;-60
2023/12/14 04:07:13;;;;;;;7.30;5.00;;;;;;;1.97;82.12;100780.48;104765;1260;66730;-60
2023/12/14 04:09:40;;;;;;;7.50;5.40;;;;;;;1.99;82.17;100778.16;104723;1260;137759;-61
2023/12/14 04:12:07;;;;;;;7.80;5.60;;;;;;;2.01;82.12;100776.03;103743;1256;61258;-60
2023/12/14 04:14:33;;;;;;;8.00;5.20;;;;;;;2.00;81.92;100778.23;104545;1259;139010;-61
2023/12/14 04:17:00;;;;;;;7.20;5.50;;;;;;;2.01;81.86;100779.30;104669;1260;73970;-62
2023/12/14 04:19:27;;;;;;;7.40;5.50;;;;;;;2.01;81.67;100781.75;104840;1260;66473;-61
2023/12/14 04:21:53;;;;;;;6.20;4.50;;;;;;;2.00;81.62;100779.63;104610;1260;138396;-61
2023/12/14 04:24:21;;;;;;;7.90;5.30;;;;;;;2.00;81.51;100781.17;104632;1256;61378;-61
2023/12/14 04:26:48;;;;;;;8.40;5.30;;;;;;;1.99;81.38;100783.38;104719;1256;138426;-62
2023/12/14 04:29:15;;;;;;;9.90;5.50;;;;;;;2.00;81.40;100788.46;104760;1256;75215;-62
2023/12/14 04:31:42;;;;;;;7.80;5.90;;;;;;;2.01;81.36;100789.74;104667;1256;65408;-61
2023/12/14 04:34:11;;;;;;;9.40;6.00;;;;;;;2.03;81.30;100794.14;104600;1259;137441;-61
2023/12/14 04:36:38;;;;;;;8.80;5.90;;;;;;;2.05;81.25;100793.61;104735;1260;61369;-61
2023/12/14 04:39:05;;;;;;;8.60;5.90;;;;;;;2.06;81.30;100791.40;104698;1256;137846;-60
2023/12/14 04:41:31;;;;;;;8.90;5.90;;;;;;;2.07;81.14;100788.54;104675;1257;75395;-61
2023/12/14 04:43:58;;;;;;;8.90;6.10;;;;;;;2.08;81.06;100791.38;104674;1260;64265;-66
2023/12/14 04:46:25;;;;;;;10.90;6.10;;;;;;;2.09;81.01;100792.98;104674;1261;138966;-67
2023/12/14 04:48:52;;;;;;;12.50;7.10;;;;;;;2.10;81.08;100796.13;104704;1256;61291;-66
2023/12/14 04:51:18;;;;;;;12.40;6.10;;;;;;;2.10;80.73;100800.66;104590;1258;138562;-65
2023/12/14 04:53:45;;;;;;;9.00;6.20;;;;;;;2.11;80.80;100803.49;104855;1257;75064;-66
2023/12/14 04:56:12;;;;;;;8.60;5.80;;;;;;;2.12;80.82;100806.31;104885;1256;64859;-66
2023/12/14 04:58:39;;;;;;;8.80;5.90;;;;;;;2.13;80.73;100809.67;104675;1259;138409;-65
2023/12/14 05:01:06;;;;;;;8.50;5.60;;;;;;;2.15;80.64;100812.70;105006;1259;61193;-65
2023/12/14 05:03:34;;;;;;;10.10;6.40;;;;;;;2.18;80.61;100819.48;104658;1259;137857;-66
2023/12/14 05:06:01;;;;;;;9.80;6.20;;;;;;;2.21;80.54;100820.17;104697;1260;76024;-65
2023/12/14 05:08:28;;;;;;;8.40;5.80;;;;;;;2.24;80.51;100827.24;104641;1256;66368;-64
2023/12/14 05:10:55;;;;;;;8.70;5.40;;;;;;;2.25;80.19;100827.99;104597;1256;137136;-67
2023/12/14 05:13:21;;;;;;;7.40;5.10;;;;;;;2.24;80.15;100832.32;104710;1256;61465;-66
2023/12/14 05:15:48;;;;;;;7.30;4.90;;;;;;;2.25;79.99;100835.95;104590;1257;138192;-65
2023/12/14 05:18:14;;;;;;;7.90;5.30;;;;;;;2.24;79.94;100840.23;104730;1257;74149;-65
2023/12/14 05:20:41;;;;;;;7.80;5.00;;;;;;;2.24;79.92;100844.77;104728;1256;138265;-65
2023/12/14 05:23:08;;;;;;;7.10;5.00;;;;;;;2.25;79.83;100849.70;104799;1256;72716;-65
2023/12/14 05:25:35;;;;;;;5.50;4.10;;;;;;;2.26;79.86;100854.94;104766;1260;61190;-65
2023/12/14 05:28:02;;;;;;;7.50;4.60;;;;;;;2.27;79.71;100855.14;104866;1257;138095;-64
2023/12/14 05:30:29;;;;;;;6.30;5.10;;;;;;;2.28;79.49;100856.96;104823;1256;74700;-65
2023/12/14 05:32:56;;;;;;;6.30;4.50;;;;;;;2.31;79.63;100857.84;105061;1258;138246;-65
2023/12/14 05:35:23;;;;;;;6.50;3.90;;;;;;;2.35;79.42;100859.61;104689;1258;72094;-65
2023/12/14 05:37:49;;;;;;;6.10;4.20;;;;;;;2.37;79.44;100858.52;104850;1257;61451;-64
2023/12/14 05:40:16;;;;;;;6.60;4.00;;;;;;;2.38;79.21;100858.91;104881;1256;138698;-64
2023/12/14 05:42:43;;;;;;;9.20;4.20;;;;;;;2.37;79.06;100865.81;104925;1256;73174;-60
2023/12/14 05:45:09;;;;;;;8.10;4.50;;;;;;;2.38;79.00;100866.36;104648;1256;138700;-59
2023/12/14 05:47:37;;;;;;;4.50;3.50;;;;;;;2.38;78.93;100866.33;104895;1256;71481;-59
2023/12/14 05:50:04;;;;;;;7.10;4.10;;;;;;;2.38;78.92;100866.52;104740;1259;61347;-65
2023/12/14 05:52:31;;;;;;;67.40;39.80;;;;;;;2.38;78.92;100862.70;105268;1256;138077;-64
2023/12/14 05:54:57;;;;;;;9.80;6.20;;;;;;;2.38;78.72;100866.70;104966;1256;75730;-64
2023/12/14 05:57:24;;;;;;;43.90;29.70;;;;;;;2.39;78.64;100862.94;104714;1256;138310;-65
2023/12/14 05:59:51;;;;;;;36.00;24.60;;;;;;;2.41;78.60;100861.49;104748;1261;73643;-65
2023/12/14 06:02:18;;;;;;;37.80;28.90;;;;;;;2.44;78.57;100870.55;104753;1259;61329;-60
2023/12/14 06:04:44;;;;;;;56.80;48.80;;;;;;;2.46;78.50;100872.73;104710;1260;137794;-63
2023/12/14 06:07:14;;;;;;;25.80;22.30;;;;;;;2.48;78.36;100875.64;104706;1258;76244;-64
2023/12/14 06:09:41;;;;;;;13.80;11.50;;;;;;;2.50;78.33;100875.05;104676;1257;137823;-65
2023/12/14 06:12:08;;;;;;;24.40;17.80;;;;;;;2.52;78.20;100881.27;104762;1261;73413;-65
2023/12/14 06:14:35;;;;;;;9.40;6.90;;;;;;;2.53;78.05;100884.27;104143;1258;139132;-62
2023/12/14 06:17:01;;;;;;;12.30;10.10;;;;;;;2.55;77.97;100884.67;104502;1256;61781;-61
2023/12/14 06:19:28;;;;;;;7.30;5.30;;;;;;;2.56;77.88;100889.07;104769;1256;75832;-63
2023/12/14 06:21:55;;;;;;;25.20;21.90;;;;;;;2.56;77.81;100893.05;104568;1257;137353;-63
2023/12/14 06:24:22;;;;;;;27.90;20.40;;;;;;;2.54;77.59;100895.21;104584;1259;73424;-64
2023/12/14 06:26:49;;;;;;;53.60;41.10;;;;;;;2.52;77.53;100898.39;104669;1260;138685;-65
2023/12/14 06:29:15;;;;;;;46.80;34.10;;;;;;;2.50;77.43;100901.86;104785;1260;61236;-65
2023/12/14 06:31:42;;;;;;;25.20;15.90;;;;;;;2.46;77.34;100902.19;104858;1259;74211;-64
2023/12/14 06:34:09;;;;;;;56.00;32.30;;;;;;;2.48;77.43;100907.83;108769;1256;139582;-64
2023/12/14 06:36:36;;;;;;;31.90;18.70;;;;;;;2.47;77.28;100909.52;108923;1255;72552;-64
2023/12/14 06:39:05;;;;;;;119.90;64.30;;;;;;;2.49;77.36;100913.09;108826;1254;138654;-64
2023/12/14 06:41:32;;;;;;;23.10;14.00;;;;;;;2.49;77.17;100912.75;109093;1255;61009;-65
2023/12/14 06:43:58;;;;;;;79.50;44.10;;;;;;;2.50;76.95;100916.65;109038;1255;72974;-63
2023/12/14 06:46:25;;;;;;;43.20;24.70;;;;;;;2.51;76.83;100918.23;108987;1256;138212;-64
2023/12/14 06:48:53;;;;;;;43.70;22.30;;;;;;;2.52;76.87;100924.41;109013;1255;72672;-64
2023/12/14 06:51:20;;;;;;;14.60;6.60;;;;;;;2.52;76.77;100925.44;108921;1255;137773;-63
2023/12/14 06:53:47;;;;;;;66.10;34.20;;;;;;;2.52;76.72;100927.50;109080;1255;60111;-63
2023/12/14 06:56:14;;;;;;;70.30;33.20;;;;;;;2.50;76.71;100926.35;108995;1257;74432;-62
2023/12/14 06:58:41;;;;;;;17.20;8.70;;;;;;;2.50;76.54;100928.23;108881;1256;137926;-62
2023/12/14 07:01:15;;;;;;;59.20;27.80;;;;;;;2.49;76.53;100933.02;109069;1256;72722;-62
2023/12/14 07:03:43;;;;;;;30.80;14.00;;;;;;;2.48;76.50;100937.32;108956;1256;138492;-63
2023/12/14 07:06:14;;;;;;;24.90;12.70;;;;;;;2.49;76.43;100939.76;108511;1256;59245;-65
2023/12/14 07:08:41;;;;;;;19.30;10.60;;;;;;;2.50;76.53;100944.16;104787;1260;138983;-64
2023/12/14 07:11:08;;;;;;;47.50;28.70;;;;;;;2.51;76.62;100942.70;105005;1260;66842;-64
2023/12/14 07:13:37;;;;;;;47.00;31.00;;;;;;;2.53;76.74;100949.55;105083;1259;70797;-65
2023/12/14 07:16:10;;;;;;;40.50;25.50;;;;;;;2.55;76.57;100949.63;104881;1256;137983;-63
2023/12/14 07:18:37;;;;;;;33.50;20.00;;;;;;;2.56;76.55;100956.46;106916;1256;61112;-63
2023/12/14 07:21:04;;;;;;;17.00;9.80;;;;;;;2.57;76.56;100959.13;107235;1255;138537;-65
2023/12/14 07:23:31;;;;;;;14.20;8.30;;;;;;;2.60;76.74;100965.70;109050;1255;65252;-62
2023/12/14 07:25:58;;;;;;;12.50;8.50;;;;;;;2.63;76.67;100965.20;109042;1255;70981;-64
2023/12/14 07:28:24;;;;;;;16.00;7.90;;;;;;;2.65;76.69;100970.04;107402;1255;138450;-65
2023/12/14 07:30:51;;;;;;;11.10;6.70;;;;;;;2.68;76.47;100970.02;104884;1260;61770;-65
2023/12/14 07:33:18;;;;;;;15.40;7.90;;;;;;;2.70;76.51;100975.33;104796;1257;137986;-63
2023/12/14 07:35:45;;;;;;;16.00;9.90;;;;;;;2.72;76.50;100982.58;105096;1258;65527;-65
2023/12/14 07:38:12;;;;;;;17.90;10.80;;;;;;;2.75;76.44;100984.61;104950;1256;73348;-64
2023/12/14 07:40:39;;;;;;;16.60;8.30;;;;;;;2.77;76.40;100988.73;104861;1256;138764;-64
2023/12/14 07:43:06;;;;;;;16.90;9.30;;;;;;;2.81;76.52;100992.95;104862;1260;61271;-66
2023/12/14 07:45:34;;;;;;;14.30;7.80;;;;;;;2.85;76.47;100999.62;104897;1255;138319;-64
2023/12/14 07:48:00;;;;;;;12.60;7.50;;;;;;;2.89;76.38;101000.05;105015;1256;67498;-64
2023/12/14 07:50:27;;;;;;;12.60;8.50;;;;;;;2.91;76.36;101009.55;105029;1256;72334;-64
2023/12/14 07:52:54;;;;;;;11.40;6.50;;;;;;;2.95;76.25;101012.83;106051;1257;137559;-64
2023/12/14 07:55:20;;;;;;;12.60;6.50;;;;;;;2.98;76.27;101017.92;105033;1258;61344;-63
2023/12/14 07:57:47;;;;;;;11.50;6.00;;;;;;;3.02;76.02;101019.52;104800;1256;137637;-64
2023/12/14 08:00:15;;;;;;;12.20;6.70;;;;;;;3.03;75.99;101018.89;105000;1258;66334;-65
2023/12/14 08:02:42;;;;;;;9.10;5.20;;;;;;;3.02;75.94;101024.08;106730;1255;137704;-64
2023/12/14 08:05:09;;;;;;;10.30;5.80;;;;;;;3.04;75.86;101026.91;105010;1259;59701;-64
2023/12/14 08:07:36;;;;;;;13.80;5.80;;;;;;;3.04;75.77;101028.30;105046;1260;61273;-64
2023/12/14 08:10:03;;;;;;;10.30;5.70;;;;;;;3.04;75.77;101029.71;104781;1256;138081;-65
2023/12/14 08:12:29;;;;;;;10.60;5.20;;;;;;;3.05;75.69;101029.40;109036;1256;64647;-64
2023/12/14 08:14:56;;;;;;;12.00;6.00;;;;;;;3.07;75.53;101033.16;108843;1256;139271;-64
2023/12/14 08:17:23;;;;;;;11.00;5.70;;;;;;;3.08;75.35;101034.30;109150;1255;59009;-64
2023/12/14 08:19:49;;;;;;;11.30;6.10;;;;;;;3.11;75.30;101037.23;109058;1255;61147;-64
2023/12/14 08:22:16;;;;;;;10.80;5.90;;;;;;;3.14;75.28;101038.44;108964;1255;137963;-64
2023/12/14 08:24:43;;;;;;;8.90;5.40;;;;;;;3.17;75.20;101043.65;109063;1255;66236;-65
2023/12/14 08:27:09;;;;;;;10.60;5.90;;;;;;;3.19;74.98;101042.41;105154;1254;137716;-65
2023/12/14 08:29:36;;;;;;;9.50;5.90;;;;;;;3.20;74.93;101040.68;105093;1256;61318;-65
2023/12/14 08:32:03;;;;;;;9.50;6.60;;;;;;;3.17;74.65;101042.94;105149;1258;61284;-64
2023/12/14 08:34:30;;;;;;;9.00;5.90;;;;;;;3.14;74.42;101045.54;108739;1255;137550;-66
2023/12/14 08:36:57;;;;;;;8.30;5.30;;;;;;;3.10;74.38;101048.30;104930;1259;66359;-64
2023/12/14 08:39:24;;;;;;;6.90;5.00;;;;;;;3.08;74.40;101051.96;104764;1257;137640;-65
2023/12/14 08:41:50;;;;;;;10.00;5.70;;;;;;;3.05;74.30;101058.22;105010;1256;61407;-64
2023/12/14 08:44:17;;;;;;;10.80;6.40;;;;;;;3.01;74.13;101058.15;104976;1256;61384;-65
2023/12/14 08:46:45;;;;;;;14.20;8.50;;;;;;;2.96;73.95;101059.36;104923;1258;137457;-66
2023/12/14 08:49:12;;;;;;;11.60;8.10;;;;;;;2.88;73.86;101061.02;106525;1256;64613;-64
2023/12/14 08:51:39;;;;;;;13.50;6.90;;;;;;;2.83;74.05;101065.70;104917;1255;137807;-65
2023/12/14 08:54:06;;;;;;;10.10;7.20;;;;;;;2.77;73.87;101067.80;105118;1256;61359;-64
2023/12/14 08:56:33;;;;;;;10.50;6.30;;;;;;;2.74;73.81;101070.00;105079;1256;61296;-64
2023/12/14 08:59:03;;;;;;;10.20;7.10;;;;;;;2.69;73.91;101075.11;104852;1256;75306;-64
2023/12/14 09:01:30;;;;;;;9.60;6.00;;;;;;;2.68;73.76;101076.80;104951;1259;67255;-65
2023/12/14 09:03:57;;;;;;;11.30;6.60;;;;;;;2.71;74.04;101079.71;104785;1256;137437;-64
2023/12/14 09:06:23;;;;;;;5.90;4.70;;;;;;;2.73;73.97;101082.81;104904;1255;61237;-65
2023/12/14 09:08:50;;;;;;;9.00;5.90;;;;;;;2.77;73.92;101080.40;105050;1259;137767;-65
2023/12/14 09:11:16;;;;;;;7.10;5.00;;;;;;;2.82;73.98;101083.47;105044;1255;75827;-65
2023/12/14 09:13:43;;;;;;;7.30;4.90;;;;;;;2.88;73.83;101084.35;104982;1256;66926;-65
2023/12/14 09:16:10;;;;;;;7.10;4.70;;;;;;;2.95;74.00;101085.30;104891;1258;138002;-65
2023/12/14 09:18:37;;;;;;;8.10;4.50;;;;;;;3.01;73.92;101088.10;104981;1256;62029;-65
2023/12/14 09:21:04;;;;;;;11.30;5.10;;;;;;;3.07;73.75;101084.70;104835;1256;137803;-66
2023/12/14 09:23:31;;;;;;;14.50;5.10;;;;;;;3.15;73.77;101089.52;107088;1255;74987;-65
2023/12/14 09:25:58;;;;;;;11.30;5.10;;;;;;;3.23;73.65;101092.24;105043;1255;64887;-64
2023/12/14 09:28:26;;;;;;;7.30;4.90;;;;;;;3.31;73.38;101091.13;106977;1256;137725;-65
2023/12/14 09:30:53;;;;;;;9.30;4.80;;;;;;;3.39;73.26;101094.40;105036;1256;61281;-64
2023/12/14 09:33:20;;;;;;;7.80;4.60;;;;;;;3.47;73.14;101093.64;104942;1258;138023;-64
2023/12/14 09:35:46;;;;;;;7.50;4.60;;;;;;;3.55;73.01;101096.50;104925;1258;76159;-64
2023/12/14 09:38:16;;;;;;;6.00;4.50;;;;;;;3.61;73.02;101096.86;104965;1258;67570;-64
2023/12/14 09:40:44;;;;;;;9.20;4.50;;;;;;;3.67;73.00;101093.64;104828;1257;137569;-65
2023/12/14 09:43:12;;;;;;;8.50;4.70;;;;;;;3.75;73.01;101101.70;104835;1256;61274;-65
2023/12/14 09:45:41;;;;;;;7.00;4.80;;;;;;;3.84;72.97;101103.23;109044;1255;137590;-64
2023/12/14 09:48:07;;;;;;;6.00;4.10;;;;;;;3.92;73.00;101105.98;108891;1255;74753;-64
2023/12/14 09:50:34;;;;;;;7.60;4.10;;;;;;;3.98;73.01;101108.95;105150;1256;137637;-66
2023/12/14 09:53:01;;;;;;;8.50;4.80;;;;;;;4.04;72.83;101110.84;105372;1256;72101;-65
2023/12/14 09:55:27;;;;;;;6.40;4.70;;;;;;;4.10;72.65;101114.81;105103;1260;61370;-62
2023/12/14 09:57:54;;;;;;;10.70;5.60;;;;;;;4.14;72.62;101122.34;104917;1256;137775;-63
2023/12/14 10:00:40;;;;;;;9.40;5.70;;;;;;;4.18;72.57;101124.81;105009;1259;74342;-63
2023/12/14 10:03:26;;;;;;;10.80;6.00;;;;;;;4.19;72.44;101121.22;106237;1256;137391;-65
2023/12/14 10:05:56;;;;;;;11.30;5.90;;;;;;;4.23;72.54;101124.42;105772;1257;72807;-65
2023/12/14 10:08:23;;;;;;;8.40;6.30;;;;;;;4.32;72.60;101129.42;105278;1254;61368;-63
2023/12/14 10:10:52;;;;;;;8.00;5.20;;;;;;;4.39;72.54;101130.52;104889;1256;137135;-62
2023/12/14 10:13:20;;;;;;;10.40;5.50;;;;;;;4.44;72.30;101129.42;109067;1256;76611;-63
2023/12/14 10:15:48;;;;;;;9.50;5.60;;;;;;;4.48;72.29;101133.27;109002;1256;138651;-63
2023/12/14 10:18:24;;;;;;;8.00;6.10;;;;;;;4.50;72.25;101128.31;107398;1254;72982;-64
2023/12/14 10:20:51;;;;;;;9.60;6.10;;;;;;;4.55;72.21;101132.24;104940;1256;137539;-64
2023/12/14 10:23:18;;;;;;;8.10;5.40;;;;;;;4.55;72.11;101137.14;107374;1256;61234;-66
2023/12/14 10:25:46;;;;;;;6.60;4.60;;;;;;;4.48;71.85;101142.14;105044;1256;73286;-66
2023/12/14 10:28:15;;;;;;;8.00;4.50;;;;;;;4.43;71.70;101145.34;105377;1256;137393;-64
2023/12/14 10:30:42;;;;;;;8.50;5.70;;;;;;;4.45;71.84;101144.95;105004;1256;74032;-64
2023/12/14 10:33:09;;;;;;;5.90;4.20;;;;;;;4.50;71.85;101146.73;104996;1261;137699;-66
2023/12/14 10:35:36;;;;;;;4.80;3.90;;;;;;;4.51;71.75;101154.45;105068;1256;61236;-66
2023/12/14 10:38:05;;;;;;;5.80;3.80;;;;;;;4.45;71.44;101153.61;104753;1258;75199;-65
2023/12/14 10:40:32;;;;;;;4.90;3.80;;;;;;;4.40;71.39;101156.79;108224;1256;151667;-66
2023/12/14 10:42:59;;;;;;;4.80;3.60;;;;;;;4.38;71.27;101156.15;105038;1258;73479;-65
2023/12/14 10:45:32;;;;;;;6.80;3.80;;;;;;;4.40;71.43;101159.27;105441;1256;137532;-65
2023/12/14 10:48:00;;;;;;;4.90;4.00;;;;;;;4.47;71.30;101159.44;105032;1258;61287;-64
2023/12/14 10:50:28;;;;;;;5.80;4.70;;;;;;;4.47;71.25;101159.08;105743;1256;75861;-64
2023/12/14 10:52:55;;;;;;;7.50;4.90;;;;;;;4.46;71.26;101165.84;105282;1259;137425;-64
2023/12/14 10:55:37;;;;;;;7.20;4.90;;;;;;;4.53;71.45;101163.77;104812;1258;73242;-65
2023/12/14 10:58:04;;;;;;;7.00;5.10;;;;;;;4.58;71.22;101161.08;104855;1256;137444;-65
2023/12/14 11:00:32;;;;;;;9.10;5.40;;;;;;;4.64;71.39;101164.40;104964;1259;61166;-62
2023/12/14 11:02:59;;;;;;;6.20;4.80;;;;;;;4.64;71.14;101166.84;104825;1255;137995;-63
2023/12/14 11:05:29;;;;;;;10.90;6.30;;;;;;;4.66;71.24;101164.16;108886;1256;67280;-64
2023/12/14 11:08:01;;;;;;;9.30;6.00;;;;;;;4.70;71.26;101162.98;106133;1258;70794;-63
2023/12/14 11:10:29;;;;;;;7.20;5.20;;;;;;;4.71;71.06;101168.08;104827;1256;138062;-66
2023/12/14 11:12:59;;;;;;;10.20;4.90;;;;;;;4.69;71.23;101173.55;109082;1256;60762;-64